createdAt,value
2022-12-01T00:02:49.350Z,23.70
2022-12-01T00:07:50.813Z,21.92
2022-12-01T00:12:56.351Z,20.20
2022-12-01T00:17:58.091Z,25.15
2022-12-01T00:22:59.673Z,22.48
2022-12-01T00:28:01.029Z,26.55
2022-12-01T00:33:02.685Z,21.60
2022-12-01T00:38:03.971Z,24.63
2022-12-01T00:43:05.285Z,25.15
2022-12-01T00:48:06.581Z,23.50
2022-12-01T00:53:07.879Z,23.27
2022-12-01T00:58:09.173Z,26.23
2022-12-01T01:03:11.091Z,24.52
2022-12-01T01:08:13.666Z,27.35
2022-12-01T01:13:15.282Z,31.38
2022-12-01T01:18:16.566Z,32.80
2022-12-01T01:23:17.845Z,31.25
2022-12-01T01:28:19.769Z,34.30
2022-12-01T01:33:21.077Z,38.50
2022-12-01T01:38:22.921Z,38.40
2022-12-01T01:43:43.070Z,43.75
2022-12-01T01:48:50.137Z,46.28
2022-12-01T01:53:53.935Z,46.28
2022-12-01T01:58:55.403Z,44.03
2022-12-01T02:03:56.898Z,48.33
2022-12-01T02:08:58.278Z,43.47
2022-12-01T02:14:14.464Z,46.65
2022-12-01T02:19:27.973Z,39.13
2022-12-01T02:24:42.760Z,46.70
2022-12-01T02:29:44.101Z,54.35
2022-12-01T02:34:55.657Z,50.22
2022-12-01T02:40:05.829Z,51.88
2022-12-01T02:45:10.602Z,59.03
2022-12-01T02:50:12.577Z,51.60
2022-12-01T02:55:13.869Z,51.65
2022-12-01T03:00:17.929Z,49.08
2022-12-01T03:05:19.230Z,55.88
2022-12-01T03:10:20.521Z,55.13
2022-12-01T03:15:24.589Z,49.50
2022-12-01T03:20:47.137Z,65.00
2022-12-01T03:25:49.291Z,59.28
2022-12-01T03:30:52.320Z,60.85
2022-12-01T03:36:03.129Z,49.55
2022-12-01T03:41:16.497Z,54.55
2022-12-01T03:46:36.077Z,51.40
2022-12-01T03:51:46.197Z,51.63
2022-12-01T03:56:51.032Z,57.35
2022-12-01T04:01:52.906Z,62.25
2022-12-01T04:06:54.286Z,65.65
2022-12-01T04:12:24.636Z,59.50
2022-12-01T04:17:26.676Z,56.95
2022-12-01T04:22:27.990Z,59.25
2022-12-01T04:27:29.418Z,64.78
2022-12-01T04:32:30.875Z,69.47
2022-12-01T04:37:32.222Z,67.40
2022-12-01T04:42:33.561Z,52.00
2022-12-01T04:47:34.883Z,45.80
2022-12-01T04:52:37.523Z,51.50
2022-12-01T04:57:39.472Z,47.25
2022-12-01T05:02:43.292Z,37.58
2022-12-01T05:07:45.054Z,30.45
2022-12-01T05:12:46.444Z,37.50
2022-12-01T05:17:47.755Z,30.92
2022-12-01T05:23:06.004Z,32.83
2022-12-01T05:28:07.845Z,36.97
2022-12-01T05:33:09.174Z,36.83
2022-12-01T05:38:10.577Z,32.58
2022-12-01T05:43:11.872Z,38.92
2022-12-01T05:48:13.199Z,36.33
2022-12-01T05:53:14.874Z,43.47
2022-12-01T05:58:16.189Z,34.13
2022-12-01T06:03:17.593Z,44.30
2022-12-01T06:08:18.917Z,54.97
2022-12-01T06:13:20.306Z,45.33
2022-12-01T06:18:21.604Z,42.10
2022-12-01T06:23:27.574Z,41.38
2022-12-01T06:28:31.399Z,50.90
2022-12-01T06:33:32.718Z,40.53
2022-12-01T06:38:34.811Z,35.90
2022-12-01T06:43:37.303Z,34.50
2022-12-01T06:48:39.024Z,38.75
2022-12-01T06:53:40.348Z,45.20
2022-12-01T06:58:41.644Z,37.25
2022-12-01T07:03:46.866Z,38.38
2022-12-01T07:08:48.192Z,43.55
2022-12-01T07:13:54.109Z,46.80
2022-12-01T07:18:55.775Z,35.15
2022-12-01T07:23:57.176Z,41.78
2022-12-01T07:28:58.460Z,42.75
2022-12-01T07:33:59.765Z,36.20
2022-12-01T07:39:04.389Z,40.08
2022-12-01T07:44:05.774Z,33.28
2022-12-01T07:49:07.661Z,35.50
2022-12-01T07:54:10.221Z,27.95
2022-12-01T07:59:12.096Z,31.80
2022-12-01T08:04:13.622Z,34.22
2022-12-01T08:09:14.973Z,27.27
2022-12-01T08:14:16.278Z,32.10
2022-12-01T08:19:17.678Z,33.38
2022-12-01T08:24:18.980Z,35.30
2022-12-01T08:29:20.646Z,31.25
2022-12-01T08:34:22.026Z,35.10
2022-12-01T08:39:23.347Z,38.35
2022-12-01T08:44:24.698Z,35.55
2022-12-01T08:49:26.492Z,41.03
2022-12-01T08:54:27.814Z,30.50
2022-12-01T08:59:29.190Z,35.08
2022-12-01T09:04:30.476Z,39.88
2022-12-01T09:09:31.745Z,34.33
2022-12-01T09:14:36.442Z,39.45
2022-12-01T09:19:37.727Z,40.20
2022-12-01T09:24:39.028Z,39.85
2022-12-01T09:29:40.313Z,47.25
2022-12-01T09:34:41.793Z,41.55
2022-12-01T09:39:43.065Z,36.05
2022-12-01T09:44:50.384Z,55.08
2022-12-01T09:50:02.610Z,51.10
2022-12-01T09:55:07.009Z,50.83
2022-12-01T10:00:19.299Z,41.42
2022-12-01T10:05:21.846Z,47.30
2022-12-01T10:10:27.008Z,41.70
2022-12-01T10:15:50.383Z,47.80
2022-12-01T10:20:51.686Z,41.00
2022-12-01T10:25:56.997Z,44.13
2022-12-01T10:31:03.364Z,42.78
2022-12-01T10:36:04.773Z,53.50
2022-12-01T10:41:08.943Z,48.45
2022-12-01T10:46:32.653Z,56.35
2022-12-01T10:51:45.279Z,55.28
2022-12-01T10:56:47.725Z,49.95
2022-12-01T11:01:49.459Z,51.50
2022-12-01T11:06:51.257Z,49.15
2022-12-01T11:11:59.709Z,42.90
2022-12-01T11:17:14.344Z,44.20
2022-12-01T11:22:20.024Z,42.88
2022-12-01T11:27:22.955Z,40.30
2022-12-01T11:32:29.070Z,39.75
2022-12-01T11:37:33.063Z,44.10
2022-12-01T11:42:36.835Z,39.83
2022-12-01T11:47:57.485Z,52.03
2022-12-01T11:52:59.037Z,42.63
2022-12-01T11:58:02.329Z,40.53
2022-12-01T12:03:03.665Z,38.35
2022-12-01T12:08:14.006Z,39.30
2022-12-01T12:13:15.301Z,36.28
2022-12-01T12:18:22.501Z,35.97
2022-12-01T12:23:35.822Z,39.08
2022-12-01T12:28:56.950Z,37.85
2022-12-01T12:34:16.954Z,38.58
2022-12-01T12:39:31.181Z,34.53
2022-12-01T12:44:41.704Z,39.03
2022-12-01T12:49:50.705Z,28.83
2022-12-01T12:54:58.834Z,34.88
2022-12-01T13:00:03.181Z,38.13
2022-12-01T13:05:07.796Z,37.33
2022-12-01T13:10:14.403Z,28.77
2022-12-01T13:15:17.483Z,31.55
2022-12-01T13:20:20.482Z,33.30
2022-12-01T13:25:27.312Z,36.08
2022-12-01T13:30:28.686Z,38.80
2022-12-01T13:35:37.581Z,32.47
2022-12-01T13:40:38.968Z,34.42
2022-12-01T13:45:40.708Z,34.92
2022-12-01T13:50:47.847Z,33.70
2022-12-01T13:55:59.817Z,38.35
2022-12-01T14:01:19.429Z,34.97
2022-12-01T14:11:23.394Z,35.65
2022-12-01T14:16:25.139Z,32.10
2022-12-01T14:21:42.445Z,35.85
2022-12-01T14:26:45.059Z,33.75
2022-12-01T14:31:49.950Z,34.80
2022-12-01T14:37:09.848Z,43.83
2022-12-01T14:42:11.115Z,36.22
2022-12-01T14:47:19.214Z,34.83
2022-12-01T14:52:26.497Z,36.72
2022-12-01T14:57:32.564Z,35.95
2022-12-01T15:02:34.608Z,30.95
2022-12-01T15:07:43.333Z,42.53
2022-12-01T15:12:45.048Z,37.60
2022-12-01T15:17:46.405Z,40.08
2022-12-01T15:22:47.724Z,32.47
2022-12-01T15:28:09.287Z,33.45
2022-12-01T15:33:28.403Z,30.63
2022-12-01T15:38:32.906Z,36.38
2022-12-01T15:43:37.439Z,32.75
2022-12-01T15:48:38.812Z,31.52
2022-12-01T15:53:44.908Z,30.55
2022-12-01T15:58:47.309Z,34.17
2022-12-01T16:03:52.328Z,39.63
2022-12-01T16:08:56.109Z,36.97
2022-12-01T16:13:59.755Z,38.40
2022-12-01T16:19:02.627Z,28.73
2022-12-01T16:24:05.149Z,38.85
2022-12-01T16:29:14.244Z,33.40
2022-12-01T16:34:44.181Z,40.83
2022-12-01T16:39:37.770Z,38.67
2022-12-01T16:44:39.084Z,41.38
2022-12-01T16:49:40.453Z,45.50
2022-12-01T16:54:41.798Z,39.53
2022-12-01T16:59:43.784Z,38.47
2022-12-01T17:04:45.077Z,36.28
2022-12-01T17:09:46.399Z,38.30
2022-12-01T17:14:47.923Z,32.67
2022-12-01T17:19:51.437Z,45.80
2022-12-01T17:24:54.585Z,51.00
2022-12-01T17:29:55.899Z,47.67
2022-12-01T17:34:57.259Z,44.50
2022-12-01T17:39:58.633Z,50.17
2022-12-01T17:45:00.507Z,46.85
2022-12-01T17:50:02.088Z,42.20
2022-12-01T17:55:04.161Z,56.05
2022-12-01T18:00:05.833Z,49.08
2022-12-01T18:05:09.940Z,46.15
2022-12-01T18:10:11.384Z,42.42
2022-12-01T18:15:12.760Z,39.97
2022-12-01T18:20:14.279Z,50.05
2022-12-01T18:25:15.695Z,45.90
2022-12-01T18:30:17.070Z,46.67
2022-12-01T18:35:18.441Z,49.85
2022-12-01T18:40:19.759Z,44.08
2022-12-01T18:45:21.621Z,45.88
2022-12-01T18:50:22.980Z,42.53
2022-12-01T18:55:24.305Z,42.85
2022-12-01T19:00:25.727Z,46.70
2022-12-01T19:05:27.061Z,51.50
2022-12-01T19:10:28.409Z,49.45
2022-12-01T19:15:30.733Z,47.58
2022-12-01T19:20:32.049Z,50.92
2022-12-01T19:25:33.654Z,45.45
2022-12-01T19:30:34.972Z,52.40
2022-12-01T19:35:36.539Z,43.13
2022-12-01T19:40:38.588Z,50.88
2022-12-01T19:45:39.928Z,50.30
2022-12-01T19:50:41.249Z,54.50
2022-12-01T19:55:42.556Z,54.53
2022-12-01T20:00:43.944Z,46.92
2022-12-01T20:05:45.304Z,50.47
2022-12-01T20:10:49.671Z,56.75
2022-12-01T20:15:50.961Z,50.05
2022-12-01T20:21:01.491Z,46.78
2022-12-01T20:26:04.094Z,47.50
2022-12-01T20:31:14.001Z,45.13
2022-12-01T20:36:15.619Z,43.47
2022-12-01T20:41:17.461Z,47.47
2022-12-01T20:46:19.013Z,43.13
2022-12-01T20:51:20.334Z,46.13
2022-12-01T20:56:21.702Z,42.90
2022-12-01T21:01:23.031Z,53.22
2022-12-01T21:06:24.427Z,50.97
2022-12-01T21:11:45.568Z,50.67
2022-12-01T21:16:48.919Z,60.35
2022-12-01T21:21:50.269Z,49.17
2022-12-01T21:27:01.920Z,42.40
2022-12-01T21:32:09.912Z,49.70
2022-12-01T21:37:19.394Z,49.92
2022-12-01T21:42:22.931Z,40.45
2022-12-01T21:47:26.272Z,44.33
2022-12-01T21:52:30.110Z,46.00
2022-12-01T21:57:41.122Z,39.67
2022-12-01T22:02:46.617Z,32.30
2022-12-01T22:07:48.241Z,29.05
2022-12-01T22:12:49.586Z,39.72
2022-12-01T22:17:50.870Z,34.33
2022-12-01T22:22:52.362Z,37.45
2022-12-01T22:27:54.413Z,32.15
2022-12-01T22:32:57.038Z,27.48
2022-12-01T22:38:14.246Z,35.65
2022-12-01T22:43:15.585Z,26.77
2022-12-01T22:48:35.753Z,31.63
2022-12-01T22:53:37.381Z,23.77
2022-12-01T22:58:40.686Z,32.33
2022-12-01T23:03:41.984Z,24.83
2022-12-01T23:08:43.282Z,34.38
2022-12-01T23:13:44.659Z,27.67
2022-12-01T23:18:46.007Z,26.48
2022-12-01T23:23:47.309Z,30.75
2022-12-01T23:28:48.632Z,29.92
2022-12-01T23:33:49.925Z,33.92
2022-12-01T23:38:52.526Z,32.15
2022-12-01T23:43:55.170Z,32.63
2022-12-01T23:48:58.474Z,33.53
2022-12-01T23:54:04.211Z,34.55
2022-12-01T23:59:08.322Z,32.88
